Time;durP1;ratioP1;P1;durP2;ratioP2;P2;SDS_P1;SDS_P2;PMS_P1;PMS_P2;Temp;Humidity;BMP_temperature;BMP_pressure;BME280_temperature;BME280_humidity;BME280_pressure;Samples;Min_cycle;Max_cycle;Signal;HPM_P1;HPM_P2
2021/05/30 00:01:36;;;;;;;8.10;5.50;;;;;;;6.80;79.26;100447.19;1747560;81;21128;-65
2021/05/30 00:04:03;;;;;;;10.95;5.62;;;;;;;6.81;79.26;100448.92;1744196;80;21443;-65
2021/05/30 00:06:29;;;;;;;8.60;5.03;;;;;;;6.82;79.32;100452.77;1747514;81;21748;-65
2021/05/30 00:08:56;;;;;;;10.00;5.45;;;;;;;6.80;79.29;100453.23;1723450;81;21051;-65
2021/05/30 00:11:23;;;;;;;7.08;5.20;;;;;;;6.80;79.54;100446.73;1744895;80;21146;-65
2021/05/30 00:13:52;;;;;;;8.88;5.42;;;;;;;6.76;79.39;100454.19;1746661;81;21085;-65
2021/05/30 00:16:18;;;;;;;6.90;4.75;;;;;;;6.75;79.33;100457.69;1748513;80;21497;-65
2021/05/30 00:18:45;;;;;;;10.30;5.20;;;;;;;6.73;79.54;100454.25;1728351;81;21561;-65
2021/05/30 00:21:11;;;;;;;9.40;5.30;;;;;;;6.73;79.58;100454.25;1729490;81;21117;-65
2021/05/30 00:23:38;;;;;;;8.45;4.87;;;;;;;6.73;79.65;100458.15;1726061;81;21080;-65
2021/05/30 00:26:05;;;;;;;8.25;5.47;;;;;;;6.74;79.89;100453.36;1745529;81;20983;-65
2021/05/30 00:28:32;;;;;;;10.08;5.70;;;;;;;6.75;79.75;100449.89;1748412;80;25149;-65
2021/05/30 00:30:59;;;;;;;9.88;5.53;;;;;;;6.76;79.71;100455.48;1738191;81;21079;-65
2021/05/30 00:33:25;;;;;;;8.80;5.50;;;;;;;6.77;79.82;100461.08;1742742;81;21563;-66
2021/05/30 00:35:52;;;;;;;9.78;6.00;;;;;;;6.76;79.72;100451.59;1748312;81;21208;-65
2021/05/30 00:38:19;;;;;;;12.20;5.30;;;;;;;6.76;79.73;100449.45;1740909;81;20983;-65
2021/05/30 00:40:45;;;;;;;11.67;5.33;;;;;;;6.75;79.75;100452.49;1747414;80;21387;-65
2021/05/30 00:43:12;;;;;;;8.83;5.33;;;;;;;6.73;79.85;100455.11;1743931;81;21085;-65
2021/05/30 00:45:38;;;;;;;11.12;5.72;;;;;;;6.72;79.93;100455.13;1740447;80;20980;-65
2021/05/30 00:48:06;;;;;;;8.73;5.57;;;;;;;6.71;80.23;100454.72;1742248;81;21055;-65
2021/05/30 00:50:33;;;;;;;11.25;5.45;;;;;;;6.71;80.04;100456.02;1743483;81;21010;-65
2021/05/30 00:53:00;;;;;;;11.73;5.55;;;;;;;6.73;80.15;100459.45;1745141;81;21049;-65
2021/05/30 00:55:26;;;;;;;10.60;6.58;;;;;;;6.73;80.36;100459.00;1746295;81;21067;-65
2021/05/30 00:57:53;;;;;;;9.30;5.67;;;;;;;6.74;80.44;100457.25;1729021;81;21624;-65
2021/05/30 01:00:21;;;;;;;9.70;5.47;;;;;;;6.75;80.27;100462.88;1713698;82;21665;-66
2021/05/30 01:02:47;;;;;;;9.50;5.03;;;;;;;6.75;80.24;100465.47;1709025;83;21075;-65
2021/05/30 01:05:14;;;;;;;10.15;5.30;;;;;;;6.77;80.67;100463.67;1720510;81;21161;-65
2021/05/30 01:07:42;;;;;;;11.03;5.53;;;;;;;6.77;80.46;100459.78;1727023;80;21066;-65
2021/05/30 01:10:21;;;;;;;;;;;;;;;6.78;80.33;100460.22;1725675;80;21335;-65
2021/05/30 01:12:49;;;;;;;15.38;5.87;;;;;;;6.81;80.86;100465.34;1729075;81;20316;-65
2021/05/30 01:15:18;;;;;;;9.93;5.42;;;;;;;6.81;80.54;100460.16;1716572;81;20992;-65
2021/05/30 01:17:47;;;;;;;9.18;5.10;;;;;;;6.82;80.66;100462.30;1725334;81;21059;-65
2021/05/30 01:20:17;;;;;;;8.33;5.50;;;;;;;6.83;80.76;100473.93;1720802;80;21071;-65
2021/05/30 01:22:46;;;;;;;9.45;5.92;;;;;;;6.85;80.70;100463.08;1725871;80;20912;-65
2021/05/30 01:25:17;;;;;;;8.90;5.87;;;;;;;6.88;80.76;100466.91;1733787;80;21004;-65
2021/05/30 01:27:44;;;;;;;10.25;5.60;;;;;;;6.89;80.76;100463.45;1723327;81;21638;-65
2021/05/30 01:30:13;;;;;;;8.15;4.80;;;;;;;6.92;80.91;100467.73;1734268;80;21773;-64
2021/05/30 01:32:39;;;;;;;8.95;5.33;;;;;;;6.93;81.26;100465.53;1736564;81;21031;-65
2021/05/30 01:36:49;;;;;;;9.58;5.60;;;;;;;7.00;82.42;100463.66;1824807;75;22615;-65
2021/05/30 01:39:15;;;;;;;11.30;5.12;;;;;;;6.94;81.39;100463.34;1800739;77;21048;-65
2021/05/30 01:41:42;;;;;;;10.68;4.90;;;;;;;6.95;81.37;100465.06;1798672;77;22218;-65
2021/05/30 01:44:08;;;;;;;8.63;4.97;;;;;;;6.92;81.62;100463.39;1801838;77;20968;-65
2021/05/30 01:46:35;;;;;;;14.97;5.83;;;;;;;6.93;81.54;100464.23;1796957;77;20934;-65
2021/05/30 01:49:02;;;;;;;10.48;5.40;;;;;;;6.92;81.60;100465.98;1802186;77;21004;-65
2021/05/30 01:51:28;;;;;;;10.27;6.13;;;;;;;6.91;81.57;100464.25;1763805;79;21014;-65
2021/05/30 01:54:05;;;;;;;11.63;5.47;;;;;;;6.92;81.66;100467.28;1738763;80;21389;-65
2021/05/30 01:59:09;;;;;;;11.40;5.60;;;;;;;6.90;81.99;100472.94;1755894;79;21012;-65
2021/05/30 02:01:37;;;;;;;9.10;5.42;;;;;;;6.90;82.05;100466.89;1728897;79;25876;-65
2021/05/30 02:04:06;;;;;;;9.68;5.30;;;;;;;6.88;81.76;100477.30;1755800;79;20974;-65
2021/05/30 02:06:33;;;;;;;8.48;5.00;;;;;;;6.89;82.49;100471.23;1746555;79;21480;-66
2021/05/30 02:09:01;;;;;;;9.45;5.28;;;;;;;6.88;82.14;100469.95;1750572;79;21569;-66
2021/05/30 02:11:28;;;;;;;10.25;4.58;;;;;;;6.89;82.03;100468.64;1748372;79;26648;-66
2021/05/30 02:14:16;;;;;;;12.00;5.55;;;;;;;6.90;81.86;100470.34;1746584;79;21016;-66
2021/05/30 02:16:46;;;;;;;9.40;4.87;;;;;;;6.93;82.02;100478.06;1716816;81;20939;-66
2021/05/30 02:19:13;;;;;;;11.65;4.67;;;;;;;6.94;82.08;100484.95;1688765;83;21076;-66
2021/05/30 02:21:45;;;;;;;9.90;4.55;;;;;;;6.94;82.72;100479.77;1720816;81;21039;-66
2021/05/30 02:24:13;;;;;;;8.60;4.92;;;;;;;6.98;82.29;100482.33;1726892;81;21627;-65
2021/05/30 02:26:41;;;;;;;9.40;5.20;;;;;;;6.99;82.60;100491.81;1724253;81;21037;-65
2021/05/30 02:29:08;;;;;;;7.60;4.53;;;;;;;7.00;82.67;100485.72;1728995;81;21028;-66
2021/05/30 02:31:35;;;;;;;;;;;;;;;7.02;82.33;100478.77;1722709;81;21311;-66
2021/05/30 02:34:03;;;;;;;7.85;4.65;;;;;;;7.04;82.23;100482.19;1722237;82;20544;-66
2021/05/30 02:36:29;;;;;;;8.93;4.25;;;;;;;7.05;82.16;100483.89;1721982;82;21028;-66
2021/05/30 02:38:56;;;;;;;12.13;4.93;;;;;;;7.08;82.38;100489.02;1720715;82;21616;-65
2021/05/30 02:41:23;;;;;;;9.10;4.93;;;;;;;7.08;82.32;100494.22;1720954;82;21048;-66
2021/05/30 02:43:50;;;;;;;8.33;4.62;;;;;;;7.09;82.26;100485.55;1718173;82;21250;-66
2021/05/30 02:46:17;;;;;;;9.03;4.55;;;;;;;7.11;82.69;100486.36;1716931;82;21178;-65
2021/05/30 02:48:43;;;;;;;9.33;4.95;;;;;;;7.11;82.36;100489.84;1715323;82;20993;-66
2021/05/30 02:51:10;;;;;;;7.00;4.33;;;;;;;7.12;82.36;100484.19;1715518;82;21029;-65
2021/05/30 02:53:36;;;;;;;5.83;3.83;;;;;;;7.13;82.37;100492.38;1717507;82;21116;-66
2021/05/30 02:56:04;;;;;;;12.20;5.03;;;;;;;7.14;82.52;100496.67;1719526;82;21448;-66
2021/05/30 02:58:31;;;;;;;8.10;4.40;;;;;;;7.13;82.55;100492.38;1715447;82;21040;-66
2021/05/30 03:00:58;;;;;;;9.28;4.10;;;;;;;7.15;82.37;100493.22;1721013;82;20963;-66
2021/05/30 03:03:25;;;;;;;10.68;5.08;;;;;;;7.18;82.54;100499.19;1712180;82;21068;-66
2021/05/30 03:05:51;;;;;;;6.90;4.28;;;;;;;7.22;82.50;100503.02;1718620;82;21816;-65
2021/05/30 03:08:19;;;;;;;9.63;4.37;;;;;;;7.25;82.41;100501.20;1710509;82;21126;-66
2021/05/30 03:10:45;;;;;;;11.25;4.90;;;;;;;7.27;82.46;100502.03;1717786;82;20977;-66
2021/05/30 03:13:12;;;;;;;9.78;4.55;;;;;;;7.29;82.55;100501.56;1718032;82;21037;-66
2021/05/30 03:15:39;;;;;;;7.78;4.53;;;;;;;7.33;82.83;100512.29;1717473;82;21059;-65
2021/05/30 03:18:07;;;;;;;7.35;4.60;;;;;;;7.37;82.61;100515.25;1717199;82;20997;-65
2021/05/30 03:20:34;;;;;;;8.98;4.30;;;;;;;7.42;82.57;100510.38;1717726;82;21035;-67
2021/05/30 03:23:00;;;;;;;6.97;4.08;;;;;;;7.44;82.72;100510.77;1718058;82;21067;-65
2021/05/30 03:25:27;;;;;;;7.97;4.33;;;;;;;7.48;82.55;100514.14;1716073;82;21685;-66
2021/05/30 03:27:54;;;;;;;7.87;4.55;;;;;;;7.51;82.47;100517.55;1718150;81;21074;-65
2021/05/30 03:30:21;;;;;;;7.58;4.42;;;;;;;7.55;82.53;100515.28;1716357;82;20981;-65
2021/05/30 03:32:47;;;;;;;12.18;4.72;;;;;;;7.57;82.40;100511.36;1716502;82;21422;-66
2021/05/30 03:35:14;;;;;;;6.90;4.75;;;;;;;7.57;82.48;100516.56;1715731;82;21002;-65
2021/05/30 03:37:40;;;;;;;8.95;4.40;;;;;;;7.59;82.68;100512.19;1716228;82;21034;-66
2021/05/30 03:40:27;;;;;;;11.55;4.22;;;;;;;7.60;82.75;100512.59;1715443;82;21597;-65
2021/05/30 03:42:47;;;;;;;10.35;4.42;;;;;;;7.63;82.56;100512.07;1713611;82;21056;-66
2021/05/30 03:45:10;;;;;;;9.83;4.50;;;;;;;7.65;82.88;100512.05;1715719;82;21781;-66
2021/05/30 03:47:36;;;;;;;8.53;4.58;;;;;;;7.65;82.81;100512.05;1718069;82;21033;-65
2021/05/30 03:50:05;;;;;;;9.55;4.92;;;;;;;7.65;82.68;100509.45;1719465;82;20990;-65
2021/05/30 03:52:31;;;;;;;9.70;4.20;;;;;;;7.67;82.95;100520.64;1716017;81;21030;-65
2021/05/30 03:54:58;;;;;;;11.80;4.63;;;;;;;7.67;82.95;100518.49;1716864;81;21657;-65
2021/05/30 03:57:25;;;;;;;9.28;4.45;;;;;;;7.65;83.16;100514.64;1716037;82;21447;-65
2021/05/30 03:59:51;;;;;;;8.15;4.03;;;;;;;7.70;82.85;100516.70;1715033;82;21128;-66
2021/05/30 04:02:18;;;;;;;8.65;4.00;;;;;;;7.82;82.92;100519.01;1716992;81;21113;-66
2021/05/30 04:04:44;;;;;;;10.35;5.62;;;;;;;7.88;82.85;100519.31;1692623;82;21022;-66
2021/05/30 04:07:11;;;;;;;8.78;4.17;;;;;;;7.89;82.79;100526.66;1696033;82;21032;-65
2021/05/30 04:09:37;;;;;;;10.90;4.63;;;;;;;7.87;82.78;100521.93;1700652;82;21462;-66
2021/05/30 04:12:06;;;;;;;9.28;4.40;;;;;;;7.85;83.50;100522.84;1690113;82;21084;-66
2021/05/30 04:14:32;;;;;;;5.75;3.70;;;;;;;7.91;83.15;100515.78;1716523;82;20990;-66
2021/05/30 04:16:59;;;;;;;5.47;3.95;;;;;;;7.98;83.18;100526.44;1721750;81;21143;-66
2021/05/30 04:19:25;;;;;;;10.35;3.62;;;;;;;8.00;83.43;100537.22;1721935;81;21080;-65
2021/05/30 04:21:52;;;;;;;7.92;3.80;;;;;;;8.06;83.18;100528.41;1717073;81;21740;-66
2021/05/30 04:24:19;;;;;;;6.85;4.05;;;;;;;8.16;83.23;100535.11;1719497;81;21252;-65
2021/05/30 04:26:46;;;;;;;6.22;3.85;;;;;;;8.25;83.45;100536.63;1696489;82;21005;-66
2021/05/30 04:29:12;;;;;;;7.22;3.45;;;;;;;8.35;83.04;100534.67;1727073;81;21058;-65
2021/05/30 04:31:39;;;;;;;7.92;3.72;;;;;;;8.45;82.95;100533.55;1696320;82;21380;-66
2021/05/30 04:34:06;;;;;;;6.57;4.03;;;;;;;8.48;82.86;100534.78;1722447;81;22192;-66
2021/05/30 04:36:32;;;;;;;8.70;3.83;;;;;;;8.51;82.86;100537.30;1721146;81;21079;-66
2021/05/30 04:38:59;;;;;;;5.77;3.30;;;;;;;8.57;82.86;100541.07;1719282;81;21004;-64
2021/05/30 04:41:25;;;;;;;9.33;4.07;;;;;;;8.71;82.86;100536.35;1691941;82;20997;-65
2021/05/30 04:43:52;;;;;;;8.88;3.70;;;;;;;8.84;82.71;100543.82;1700335;82;21016;-65
2021/05/30 04:46:19;;;;;;;6.87;3.58;;;;;;;8.94;82.69;100542.69;1712340;82;21431;-65
2021/05/30 04:48:45;;;;;;;9.40;4.83;;;;;;;9.01;82.64;100542.05;1713281;81;21614;-66
2021/05/30 04:51:15;;;;;;;7.10;3.98;;;;;;;9.07;82.65;100545.34;1693135;82;21154;-66
2021/05/30 04:53:45;;;;;;;8.83;3.80;;;;;;;9.11;82.44;100543.06;1730198;81;21045;-65
2021/05/30 04:56:20;;;;;;;14.00;5.15;;;;;;;9.23;82.47;100547.07;1728880;81;21601;-66
2021/05/30 04:58:46;;;;;;;10.55;3.55;;;;;;;9.22;82.23;100538.86;1724503;81;21094;-66
2021/05/30 05:01:12;;;;;;;10.90;3.92;;;;;;;9.14;82.22;100550.80;1722283;81;21027;-66
2021/05/30 05:03:39;;;;;;;9.75;3.50;;;;;;;9.19;82.55;100546.77;1722769;81;21039;-66
2021/05/30 05:06:06;;;;;;;7.53;3.08;;;;;;;9.39;82.44;100554.02;1726935;81;21117;-66
2021/05/30 05:08:33;;;;;;;5.20;2.50;;;;;;;9.54;82.19;100541.81;1726468;81;20984;-67
2021/05/30 05:11:00;;;;;;;7.95;2.70;;;;;;;9.83;82.09;100547.89;1691174;82;21317;-66
2021/05/30 05:13:27;;;;;;;5.27;2.57;;;;;;;9.97;81.45;100550.95;1691839;82;22608;-67
2021/05/30 05:15:55;;;;;;;7.13;3.10;;;;;;;9.85;81.21;100553.46;1694798;82;21563;-65
2021/05/30 05:18:29;;;;;;;6.05;2.85;;;;;;;9.76;81.08;100551.60;1693835;83;21133;-65
2021/05/30 05:20:56;;;;;;;8.30;3.58;;;;;;;9.70;80.87;100549.19;1693775;83;21017;-67
2021/05/30 05:23:24;;;;;;;14.00;3.87;;;;;;;9.88;81.59;100551.21;1694821;83;21571;-66
2021/05/30 05:25:53;;;;;;;6.95;2.87;;;;;;;10.48;81.97;100551.48;1696853;82;21068;-67
2021/05/30 05:28:21;;;;;;;9.88;2.40;;;;;;;11.08;80.85;100544.62;1699154;82;21085;-66
2021/05/30 05:30:50;;;;;;;5.15;2.95;;;;;;;12.02;81.46;100536.72;1698690;82;21118;-67
2021/05/30 05:33:17;;;;;;;6.58;2.95;;;;;;;12.80;79.57;100536.50;1699091;82;21037;-66
2021/05/30 05:35:43;;;;;;;9.13;3.37;;;;;;;13.06;78.58;100542.77;1716937;82;22059;-66
2021/05/30 05:38:11;;;;;;;5.40;2.80;;;;;;;12.92;78.29;100555.64;1698701;82;21505;-66
2021/05/30 05:40:38;;;;;;;8.98;2.85;;;;;;;12.58;76.44;100559.70;1702516;82;21190;-67
2021/05/30 05:43:05;;;;;;;8.60;2.98;;;;;;;12.58;76.44;100559.70;1699524;82;21061;-68
2021/05/30 05:45:32;;;;;;;;;;;;;;;12.52;76.87;100552.11;1704527;82;21013;-66
2021/05/30 05:48:00;;;;;;;6.72;2.75;;;;;;;12.24;73.86;100554.56;1699254;82;21378;-66
2021/05/30 05:50:27;;;;;;;6.87;2.45;;;;;;;12.10;77.01;100555.58;1703557;82;21014;-66
2021/05/30 05:52:54;;;;;;;6.90;2.12;;;;;;;13.35;79.03;100551.12;1700823;82;21055;-65
2021/05/30 05:55:22;;;;;;;6.47;2.72;;;;;;;14.39;75.80;100547.45;1699657;82;21592;-66
2021/05/30 05:57:51;;;;;;;4.30;2.20;;;;;;;15.23;76.03;100548.86;1698675;82;21622;-67
2021/05/30 06:00:22;;;;;;;4.03;2.58;;;;;;;15.75;74.19;100538.16;1700923;82;21070;-67
2021/05/30 06:02:50;;;;;;;6.37;2.50;;;;;;;16.19;73.60;100545.34;1724123;81;21140;-66
2021/05/30 06:05:21;;;;;;;4.20;2.62;;;;;;;16.72;72.72;100546.63;1700851;82;21060;-68
2021/05/30 06:07:50;;;;;;;6.67;2.75;;;;;;;17.21;71.63;100548.93;1701439;82;21084;-66
2021/05/30 06:10:24;;;;;;;4.03;1.98;;;;;;;17.71;72.80;100546.70;1700742;82;20958;-66
2021/05/30 06:12:49;;;;;;;7.17;2.75;;;;;;;18.03;68.85;100542.00;1699359;82;21877;-67
2021/05/30 06:15:17;;;;;;;5.30;2.50;;;;;;;17.25;68.08;100539.02;1702645;82;21159;-66
2021/05/30 06:17:43;;;;;;;5.67;2.40;;;;;;;17.17;68.94;100543.48;1702239;82;20988;-67
2021/05/30 06:20:12;;;;;;;4.95;2.35;;;;;;;16.91;67.89;100546.38;1706284;82;21030;-67
2021/05/30 06:22:38;;;;;;;3.67;2.25;;;;;;;17.29;71.44;100542.34;1706400;82;21002;-67
2021/05/30 06:25:06;;;;;;;6.12;2.22;;;;;;;17.92;70.07;100547.14;1705338;81;26616;-67
2021/05/30 06:27:33;;;;;;;6.42;2.77;;;;;;;18.06;65.96;100549.76;1700408;82;21057;-67
2021/05/30 06:30:00;;;;;;;7.60;3.02;;;;;;;17.78;68.90;100551.11;1705861;82;20999;-67
2021/05/30 06:32:26;;;;;;;3.35;2.05;;;;;;;18.10;68.97;100561.81;1701039;82;21587;-67
2021/05/30 06:34:53;;;;;;;6.03;2.37;;;;;;;18.42;67.58;100565.44;1701379;82;21029;-66
2021/05/30 06:37:20;;;;;;;3.37;2.20;;;;;;;17.92;67.47;100562.15;1705723;82;21096;-66
2021/05/30 06:39:46;;;;;;;3.85;1.90;;;;;;;17.73;66.63;100558.48;1691870;82;21071;-67
2021/05/30 06:42:13;;;;;;;3.87;1.60;;;;;;;17.96;65.02;100560.54;1699278;82;28278;-67
2021/05/30 06:44:40;;;;;;;6.08;2.12;;;;;;;17.85;66.82;100561.70;1701951;82;21012;-68
2021/05/30 06:47:06;;;;;;;4.50;2.10;;;;;;;18.20;66.82;100561.20;1699055;82;21088;-66
2021/05/30 06:49:34;;;;;;;4.45;1.70;;;;;;;18.38;66.88;100562.64;1697280;82;21363;-66
2021/05/30 06:52:00;;;;;;;;;;;;;;;17.99;57.82;100565.63;1693538;82;21013;-67
2021/05/30 06:54:27;;;;;;;4.17;2.17;;;;;;;17.29;60.16;100571.38;1698712;82;20225;-66
2021/05/30 06:56:53;;;;;;;5.83;2.20;;;;;;;16.83;61.96;100571.52;1699961;82;21067;-66
2021/05/30 06:59:20;;;;;;;4.70;1.87;;;;;;;16.71;64.02;100573.91;1700004;82;21542;-67
2021/05/30 07:01:47;;;;;;;5.35;2.27;;;;;;;16.71;62.64;100566.00;1702681;82;21332;-66
2021/05/30 07:04:14;;;;;;;3.30;1.77;;;;;;;16.71;60.70;100571.27;1696073;82;21124;-66
2021/05/30 07:06:41;;;;;;;4.80;1.57;;;;;;;16.87;60.52;100565.13;1704651;82;21008;-67
2021/05/30 07:09:07;;;;;;;5.53;1.92;;;;;;;16.76;60.39;100571.89;1705096;82;21102;-66
2021/05/30 07:11:35;;;;;;;3.12;1.65;;;;;;;16.51;60.79;100579.52;1695536;82;21607;-65
2021/05/30 07:14:03;;;;;;;4.53;2.08;;;;;;;16.17;59.83;100580.14;1696397;82;21605;-65
2021/05/30 07:16:29;;;;;;;5.87;1.70;;;;;;;16.41;61.54;100579.66;1696911;82;22000;-66
2021/05/30 07:18:56;;;;;;;;;;;;;;;16.82;60.70;100580.38;1698141;82;21633;-67
2021/05/30 07:21:23;;;;;;;5.85;1.85;;;;;;;16.90;58.31;100591.32;1696237;82;20204;-66
2021/05/30 07:23:50;;;;;;;9.78;2.10;;;;;;;16.86;59.92;100579.23;1699377;82;21011;-66
2021/05/30 07:26:16;;;;;;;4.42;2.12;;;;;;;16.99;61.57;100589.44;1696090;82;22201;-66
2021/05/30 07:28:46;;;;;;;5.30;1.67;;;;;;;17.03;59.77;100589.66;1700929;82;21810;-64
2021/05/30 07:31:14;;;;;;;2.92;1.60;;;;;;;16.80;60.92;100592.80;1694342;82;21098;-68
2021/05/30 07:33:41;;;;;;;4.03;1.85;;;;;;;16.63;61.10;100599.87;1697536;82;21688;-67
2021/05/30 07:36:08;;;;;;;3.42;1.40;;;;;;;16.41;60.32;100591.52;1695569;82;20992;-66
2021/05/30 07:38:35;;;;;;;3.70;1.70;;;;;;;16.38;60.44;100602.23;1699766;82;21059;-67
2021/05/30 07:41:01;;;;;;;;;;;;;;;16.25;60.57;100596.36;1703930;82;21082;-68
2021/05/30 07:43:28;;;;;;;2.08;1.50;;;;;;;16.09;60.22;100599.48;1698201;82;20304;-66
2021/05/30 07:45:55;;;;;;;4.40;2.22;;;;;;;15.72;58.94;100606.79;1703641;82;21050;-65
2021/05/30 07:48:21;;;;;;;10.00;1.92;;;;;;;15.76;60.30;100605.67;1702273;82;20944;-66
2021/05/30 07:50:49;;;;;;;3.00;1.52;;;;;;;15.87;59.41;100611.20;1699446;82;21099;-65
2021/05/30 07:53:16;;;;;;;;;;;;;;;15.89;59.55;100609.34;1703315;82;21023;-65
2021/05/30 07:55:44;;;;;;;3.15;1.45;;;;;;;15.43;55.22;100599.97;1701793;82;20149;-66
2021/05/30 07:58:13;;;;;;;3.95;1.62;;;;;;;15.21;57.57;100600.73;1702819;82;21034;-65
2021/05/30 08:00:40;;;;;;;2.45;1.37;;;;;;;15.07;55.35;100614.59;1705503;82;21015;-66
2021/05/30 08:03:07;;;;;;;2.20;1.32;;;;;;;15.13;56.86;100610.33;1700211;82;21125;-66
2021/05/30 08:05:34;;;;;;;2.27;1.60;;;;;;;15.12;56.14;100610.39;1698879;82;21062;-67
2021/05/30 08:08:00;;;;;;;2.05;1.32;;;;;;;15.25;56.00;100618.04;1706139;82;21005;-66
2021/05/30 08:10:29;;;;;;;2.85;1.57;;;;;;;15.07;57.05;100607.14;1703344;82;21052;-66
2021/05/30 08:12:56;;;;;;;6.05;1.60;;;;;;;15.26;57.04;100615.78;1705113;82;21028;-67
2021/05/30 08:15:23;;;;;;;7.83;1.47;;;;;;;15.34;57.02;100624.13;1703611;82;21944;-66
2021/05/30 08:17:52;;;;;;;2.50;1.60;;;;;;;15.24;55.47;100620.77;1700355;82;20976;-67
2021/05/30 08:20:24;;;;;;;2.50;1.65;;;;;;;15.15;56.79;100623.37;1701531;82;21007;-67
2021/05/30 08:22:52;;;;;;;3.05;1.87;;;;;;;14.87;54.74;100616.94;1702001;82;21048;-66
2021/05/30 08:25:22;;;;;;;3.80;1.77;;;;;;;14.50;53.42;100616.56;1700524;82;21590;-66
2021/05/30 08:27:50;;;;;;;6.97;1.65;;;;;;;14.65;56.12;100611.91;1701555;82;21137;-66
2021/05/30 08:30:20;;;;;;;3.58;1.47;;;;;;;15.00;56.12;100626.34;1699180;83;21041;-66
2021/05/30 08:32:47;;;;;;;3.22;1.47;;;;;;;15.18;56.17;100624.56;1697615;83;21007;-66
2021/05/30 08:35:16;;;;;;;3.00;1.22;;;;;;;15.11;54.08;100612.65;1700889;83;21741;-67
2021/05/30 08:37:44;;;;;;;2.75;1.37;;;;;;;15.14;54.99;100606.75;1702712;83;21024;-66
2021/05/30 08:40:14;;;;;;;2.75;1.37;;;;;;;15.17;55.26;100616.27;1697069;83;21208;-67
2021/05/30 08:42:41;;;;;;;2.80;1.20;;;;;;;15.06;52.07;100609.41;1725234;81;21124;-66
2021/05/30 08:45:08;;;;;;;3.62;1.55;;;;;;;14.62;52.99;100625.64;1718396;81;21108;-66
2021/05/30 08:47:35;;;;;;;2.25;1.25;;;;;;;14.58;50.38;100624.95;1719928;81;21104;-66
2021/05/30 08:50:04;;;;;;;3.83;1.65;;;;;;;14.58;53.82;100629.36;1720802;81;21083;-66
2021/05/30 08:52:32;;;;;;;2.37;1.35;;;;;;;14.85;52.06;100633.25;1721600;81;21066;-67
2021/05/30 08:54:58;;;;;;;4.78;1.32;;;;;;;14.80;51.92;100633.09;1725209;81;20997;-66
2021/05/30 08:57:25;;;;;;;2.27;1.15;;;;;;;14.80;52.25;100633.94;1728106;81;20948;-67
2021/05/30 08:59:57;;;;;;;2.17;1.02;;;;;;;14.86;50.55;100642.83;1726455;81;21056;-67
2021/05/30 09:02:25;;;;;;;1.65;1.20;;;;;;;14.72;50.07;100632.16;1723253;82;22947;-66
2021/05/30 09:04:58;;;;;;;4.12;1.30;;;;;;;14.93;50.46;100623.19;1728189;82;21005;-65
2021/05/30 09:07:43;;;;;;;2.42;1.17;;;;;;;14.99;50.36;100633.39;1703901;82;21083;-66
2021/05/30 09:10:26;;;;;;;3.25;1.65;;;;;;;15.02;51.72;100643.38;1699733;82;20991;-67
2021/05/30 09:13:15;;;;;;;3.15;1.20;;;;;;;15.19;52.25;100655.19;1701764;82;22289;-66
2021/05/30 09:16:07;;;;;;;4.67;1.30;;;;;;;15.27;52.16;100636.39;1700130;82;21711;-66
2021/05/30 09:18:33;;;;;;;2.40;1.35;;;;;;;15.32;51.80;100629.95;1699199;82;21135;-67
2021/05/30 09:21:12;;;;;;;3.45;1.40;;;;;;;15.29;51.44;100631.44;1699693;82;21120;-67
2021/05/30 09:23:40;;;;;;;1.75;1.10;;;;;;;15.39;51.66;100633.95;1703979;82;21031;-66
2021/05/30 09:26:19;;;;;;;2.65;1.32;;;;;;;15.51;51.06;100644.75;1696850;82;21694;-67
2021/05/30 09:29:06;;;;;;;1.90;1.22;;;;;;;15.61;51.21;100631.03;1698981;82;21236;-66
2021/05/30 09:31:34;;;;;;;5.28;1.05;;;;;;;15.73;51.37;100633.49;1702586;82;21058;-67
2021/05/30 09:34:30;;;;;;;2.30;1.17;;;;;;;15.30;50.02;100646.28;1702114;82;21341;-66
2021/05/30 09:36:58;;;;;;;2.12;1.17;;;;;;;15.25;50.59;100633.82;1694840;82;21113;-66
2021/05/30 09:39:48;;;;;;;3.72;1.40;;;;;;;15.29;50.53;100641.95;1693457;81;21131;-65
2021/05/30 09:42:38;;;;;;;5.05;1.20;;;;;;;15.18;50.89;100635.09;1702123;82;21125;-66
2021/05/30 09:45:09;;;;;;;3.52;1.40;;;;;;;14.62;48.92;100633.52;1694422;82;21798;-65
2021/05/30 09:47:45;;;;;;;1.77;1.10;;;;;;;14.34;49.58;100633.55;1696108;82;21039;-65
2021/05/30 09:50:18;;;;;;;3.50;1.40;;;;;;;14.01;48.93;100634.70;1704621;82;21078;-66
2021/05/30 09:52:52;;;;;;;2.75;1.30;;;;;;;13.96;48.90;100637.53;1719322;81;20938;-66
2021/05/30 09:55:29;;;;;;;3.05;1.20;;;;;;;13.74;46.79;100652.56;1663289;82;21087;-66
2021/05/30 09:58:16;;;;;;;2.62;1.50;;;;;;;13.33;47.64;100642.14;1703448;82;21700;-65
2021/05/30 10:00:59;;;;;;;3.15;1.22;;;;;;;13.30;49.28;100650.14;1730915;81;21025;-66
2021/05/30 10:03:27;;;;;;;3.25;1.50;;;;;;;13.62;50.02;100645.64;1724164;81;21031;-66
2021/05/30 10:05:54;;;;;;;1.92;1.10;;;;;;;14.13;50.21;100630.63;1685337;83;21286;-65
2021/05/30 10:08:25;;;;;;;6.10;1.20;;;;;;;14.29;47.51;100639.49;1723228;81;21054;-65
2021/05/30 10:10:51;;;;;;;2.08;1.12;;;;;;;14.03;49.21;100652.09;1687881;83;21178;-66
2021/05/30 10:13:18;;;;;;;2.62;1.42;;;;;;;13.75;48.52;100651.20;1715271;81;21039;-66
2021/05/30 10:15:47;;;;;;;3.62;1.30;;;;;;;13.79;49.70;100642.71;1734233;81;21621;-65
2021/05/30 10:18:25;;;;;;;2.12;1.00;;;;;;;14.32;50.56;100641.97;1728339;80;21068;-66
2021/05/30 10:20:54;;;;;;;1.67;1.10;;;;;;;14.40;49.03;100647.70;1730453;81;21120;-66
2021/05/30 10:23:22;;;;;;;6.08;1.45;;;;;;;14.21;49.30;100653.45;1699298;83;21600;-66
2021/05/30 10:25:53;;;;;;;1.92;1.20;;;;;;;14.40;49.43;100646.39;1699116;82;21118;-66
2021/05/30 10:28:21;;;;;;;3.62;1.47;;;;;;;14.54;47.00;100659.73;1719392;81;21699;-65
2021/05/30 10:30:55;;;;;;;3.37;1.10;;;;;;;14.12;47.32;100672.27;1699437;83;21535;-65
2021/05/30 10:33:24;;;;;;;3.77;1.37;;;;;;;13.93;47.34;100655.20;1724286;81;20994;-65
2021/05/30 10:35:56;;;;;;;2.80;1.37;;;;;;;14.05;49.13;100652.00;1720871;81;22234;-65
2021/05/30 10:38:43;;;;;;;4.70;1.00;;;;;;;14.36;48.49;100651.39;1727205;80;21020;-64
2021/05/30 10:41:19;;;;;;;3.50;1.20;;;;;;;14.39;47.64;100645.13;1728053;81;21078;-67
2021/05/30 10:43:47;;;;;;;2.42;1.12;;;;;;;14.30;47.59;100649.06;1722809;81;21027;-65
2021/05/30 10:46:14;;;;;;;2.20;0.78;;;;;;;14.22;47.73;100658.61;1723628;81;21317;-65
2021/05/30 10:48:42;;;;;;;5.90;1.00;;;;;;;14.34;47.26;100653.26;1702687;82;26902;-65
2021/05/30 10:54:11;;;;;;;2.58;1.20;;;;;;;14.45;44.25;100636.95;1718382;81;22231;-65
2021/05/30 10:56:56;;;;;;;2.42;1.10;;;;;;;13.94;45.78;100665.62;1721849;81;20960;-65
2021/05/30 10:59:26;;;;;;;2.02;0.70;;;;;;;13.82;46.35;100655.69;1726798;81;22210;-65
2021/05/30 11:01:55;;;;;;;2.67;1.30;;;;;;;13.85;46.35;100654.23;1694174;82;22253;-66
2021/05/30 11:04:30;;;;;;;3.17;1.05;;;;;;;13.90;46.46;100658.82;1723858;81;21424;-65
2021/05/30 11:07:22;;;;;;;2.10;1.05;;;;;;;13.92;46.15;100664.86;1708438;82;21633;-68
2021/05/30 11:09:57;;;;;;;2.80;1.15;;;;;;;13.92;46.80;100662.23;1733890;81;20999;-66
2021/05/30 11:12:33;;;;;;;3.17;1.00;;;;;;;14.02;47.05;100667.90;1715407;82;21616;-66
2021/05/30 11:15:14;;;;;;;3.62;1.20;;;;;;;14.00;47.20;100657.48;1726484;81;21127;-67
2021/05/30 11:17:44;;;;;;;1.32;0.80;;;;;;;14.06;46.66;100654.56;1707910;82;21011;-66
2021/05/30 11:20:18;;;;;;;2.62;1.07;;;;;;;14.12;47.29;100655.20;1732282;81;21608;-67
2021/05/30 11:22:56;;;;;;;1.57;0.82;;;;;;;14.24;45.92;100680.41;1717544;81;21046;-66
2021/05/30 11:25:41;;;;;;;2.20;0.70;;;;;;;14.23;46.92;100654.23;1724881;81;21014;-66
2021/05/30 11:28:11;;;;;;;2.35;1.00;;;;;;;14.30;46.99;100656.94;1704950;82;21289;-66
2021/05/30 11:30:46;;;;;;;4.05;1.02;;;;;;;14.33;46.97;100651.53;1724751;81;20983;-67
2021/05/30 11:33:26;;;;;;;1.40;0.90;;;;;;;14.24;46.75;100655.92;1722322;82;21628;-66
2021/05/30 11:35:59;;;;;;;7.87;1.10;;;;;;;14.27;47.05;100662.34;1722767;81;21008;-66
2021/05/30 11:38:51;;;;;;;7.62;1.02;;;;;;;14.18;46.37;100647.03;1730462;81;20972;-66
2021/05/30 11:41:30;;;;;;;2.15;0.88;;;;;;;13.94;44.61;100657.74;1720018;81;21778;-66
2021/05/30 11:44:10;;;;;;;1.82;0.78;;;;;;;13.91;45.73;100678.89;1720946;81;21048;-66
2021/05/30 11:46:59;;;;;;;2.22;0.68;;;;;;;13.86;43.37;100665.11;1716780;81;21315;-67